createdAt,value
2022-08-23T00:24:08.288Z,42.45
2022-08-23T00:38:59.985Z,43.34
2022-08-23T00:53:52.131Z,43.79
2022-08-23T01:08:44.061Z,45.51
2022-08-23T01:23:40.703Z,46.54
2022-08-23T01:38:35.029Z,47.64
2022-08-23T01:53:25.974Z,48.26
2022-08-23T02:08:35.731Z,48.83
2022-08-23T02:23:32.619Z,49.85
2022-08-23T02:38:24.623Z,50.33
2022-08-23T02:53:15.913Z,51.25
2022-08-23T03:08:07.531Z,51.81
2022-08-23T03:22:58.739Z,52.04
2022-08-23T03:37:54.689Z,52.70
2022-08-23T03:52:41.807Z,53.30
2022-08-23T04:07:33.907Z,53.64
2022-08-23T04:22:26.960Z,53.88
2022-08-23T04:37:17.957Z,54.09
2022-08-23T04:52:09.572Z,54.50
2022-08-23T05:07:00.375Z,54.76
2022-08-23T05:21:56.348Z,54.74
2022-08-23T05:36:48.097Z,54.68
2022-08-23T05:51:34.992Z,54.71
2022-08-23T06:06:37.217Z,54.60
2022-08-23T06:21:18.466Z,53.99
2022-08-23T06:36:10.908Z,53.38
2022-08-23T06:51:03.765Z,52.06
2022-08-23T07:05:55.926Z,51.97
2022-08-23T07:20:48.761Z,51.90
2022-08-23T07:35:41.463Z,51.79
2022-08-23T07:50:35.117Z,51.06
2022-08-23T08:05:28.761Z,49.62
2022-08-23T08:20:22.952Z,49.51
2022-08-23T08:35:15.522Z,48.34
2022-08-23T08:50:29.777Z,47.41
2022-08-23T09:05:27.357Z,46.95
2022-08-23T09:20:19.979Z,45.92
2022-08-23T09:35:11.864Z,45.09
2022-08-23T09:50:15.861Z,43.95
2022-08-23T10:05:16.429Z,43.46
2022-08-23T10:20:45.861Z,42.32
2022-08-23T10:36:05.672Z,41.42
2022-08-23T10:51:22.627Z,41.11
2022-08-23T11:06:30.407Z,39.40
2022-08-23T11:21:37.928Z,36.61
2022-08-23T11:36:34.905Z,34.39
2022-08-23T11:51:28.816Z,31.54
2022-08-23T12:06:50.517Z,28.47
2022-08-23T12:21:47.512Z,24.74
2022-08-23T12:37:09.339Z,25.24
2022-08-23T12:52:10.896Z,26.01
2022-08-23T13:07:07.058Z,24.28
2022-08-23T13:22:14.054Z,24.52
2022-08-23T13:37:23.248Z,24.67
2022-08-23T14:07:14.347Z,24.94
2022-08-23T14:22:07.137Z,25.62
2022-08-23T14:51:52.621Z,24.21
2022-08-23T15:07:06.869Z,23.72
2022-08-23T15:21:40.251Z,24.01
2022-08-23T15:36:33.241Z,23.52
2022-08-23T15:51:23.861Z,24.32
2022-08-23T16:06:13.403Z,24.85
2022-08-23T16:21:03.924Z,25.23
2022-08-23T16:35:56.758Z,25.80
2022-08-23T16:50:49.410Z,26.29
2022-08-23T17:05:41.762Z,26.26
2022-08-23T17:20:33.054Z,26.42
2022-08-23T17:35:24.266Z,27.09
2022-08-23T17:50:15.894Z,27.20
2022-08-23T18:05:13.753Z,27.59
2022-08-23T18:20:02.341Z,29.70
2022-08-23T19:04:36.708Z,32.09
2022-08-23T19:19:27.971Z,32.78
2022-08-23T19:34:19.236Z,33.89
2022-08-23T19:49:10.672Z,33.84
2022-08-23T20:04:02.706Z,34.56
2022-08-23T20:18:58.936Z,34.63
2022-08-23T20:33:46.373Z,35.68
2022-08-23T20:48:36.944Z,36.17
2022-08-23T21:03:28.135Z,36.81
2022-08-23T21:18:20.201Z,36.22
2022-08-23T21:33:12.580Z,37.53
2022-08-23T21:48:04.498Z,38.83
2022-08-23T22:02:55.921Z,39.31
2022-08-23T22:17:47.455Z,39.21
2022-08-23T22:32:39.159Z,39.10
2022-08-23T22:47:30.610Z,39.43
2022-08-23T23:02:22.581Z,39.46
2022-08-23T23:17:14.621Z,40.67
2022-08-23T23:32:06.211Z,41.37
2022-08-23T23:46:58.410Z,42.51
